sensor_id;sensor_type;location;lat;lon;timestamp;P1;durP1;ratioP1;P2;durP2;ratioP2
77362;SDS011;66428;47.322;9.432;2023-12-20T00:01:46;11.95;;;6.35;;
77362;SDS011;66428;47.322;9.432;2023-12-20T00:04:15;11.73;;;6.28;;
77362;SDS011;66428;47.322;9.432;2023-12-20T00:06:45;9.57;;;6.32;;
77362;SDS011;66428;47.322;9.432;2023-12-20T00:09:15;12.20;;;5.90;;
77362;SDS011;66428;47.322;9.432;2023-12-20T00:11:44;10.00;;;5.65;;
77362;SDS011;66428;47.322;9.432;2023-12-20T00:14:12;11.38;;;6.00;;
77362;SDS011;66428;47.322;9.432;2023-12-20T00:16:40;6.80;;;4.07;;
77362;SDS011;66428;47.322;9.432;2023-12-20T00:19:08;9.98;;;5.05;;
77362;SDS011;66428;47.322;9.432;2023-12-20T00:21:39;8.05;;;5.07;;
77362;SDS011;66428;47.322;9.432;2023-12-20T00:24:07;9.93;;;5.45;;
77362;SDS011;66428;47.322;9.432;2023-12-20T00:26:37;8.35;;;4.53;;
77362;SDS011;66428;47.322;9.432;2023-12-20T00:29:05;9.90;;;4.78;;
77362;SDS011;66428;47.322;9.432;2023-12-20T00:31:35;8.82;;;5.35;;
77362;SDS011;66428;47.322;9.432;2023-12-20T00:34:02;10.30;;;5.13;;
77362;SDS011;66428;47.322;9.432;2023-12-20T00:36:33;11.32;;;5.95;;
77362;SDS011;66428;47.322;9.432;2023-12-20T00:39:05;10.07;;;4.65;;
77362;SDS011;66428;47.322;9.432;2023-12-20T00:44:04;9.32;;;4.72;;
77362;SDS011;66428;47.322;9.432;2023-12-20T00:46:32;7.70;;;4.65;;
77362;SDS011;66428;47.322;9.432;2023-12-20T00:48:59;9.57;;;5.35;;
77362;SDS011;66428;47.322;9.432;2023-12-20T00:51:27;9.02;;;5.03;;
77362;SDS011;66428;47.322;9.432;2023-12-20T00:53:55;8.75;;;5.93;;
77362;SDS011;66428;47.322;9.432;2023-12-20T00:56:24;10.27;;;5.18;;
77362;SDS011;66428;47.322;9.432;2023-12-20T00:58:51;9.55;;;4.45;;
77362;SDS011;66428;47.322;9.432;2023-12-20T01:01:19;7.90;;;4.60;;
77362;SDS011;66428;47.322;9.432;2023-12-20T01:03:47;9.43;;;5.20;;
77362;SDS011;66428;47.322;9.432;2023-12-20T01:06:14;8.55;;;5.57;;
77362;SDS011;66428;47.322;9.432;2023-12-20T01:08:42;10.93;;;5.35;;
77362;SDS011;66428;47.322;9.432;2023-12-20T01:11:10;7.63;;;4.72;;
77362;SDS011;66428;47.322;9.432;2023-12-20T01:13:39;7.50;;;5.13;;
77362;SDS011;66428;47.322;9.432;2023-12-20T01:16:08;7.20;;;4.75;;
77362;SDS011;66428;47.322;9.432;2023-12-20T01:18:38;9.48;;;4.72;;
77362;SDS011;66428;47.322;9.432;2023-12-20T01:21:06;9.07;;;5.05;;
77362;SDS011;66428;47.322;9.432;2023-12-20T01:23:34;9.63;;;5.97;;
77362;SDS011;66428;47.322;9.432;2023-12-20T01:26:04;6.47;;;4.50;;
77362;SDS011;66428;47.322;9.432;2023-12-20T01:28:34;10.20;;;5.40;;
77362;SDS011;66428;47.322;9.432;2023-12-20T01:31:03;10.05;;;5.38;;
77362;SDS011;66428;47.322;9.432;2023-12-20T01:33:31;10.18;;;5.32;;
77362;SDS011;66428;47.322;9.432;2023-12-20T01:35:59;8.52;;;4.65;;
77362;SDS011;66428;47.322;9.432;2023-12-20T01:38:26;10.45;;;5.65;;
77362;SDS011;66428;47.322;9.432;2023-12-20T01:40:54;10.02;;;5.60;;
77362;SDS011;66428;47.322;9.432;2023-12-20T01:43:22;10.30;;;5.53;;
77362;SDS011;66428;47.322;9.432;2023-12-20T01:45:54;9.13;;;5.47;;
77362;SDS011;66428;47.322;9.432;2023-12-20T01:48:26;10.90;;;5.40;;
77362;SDS011;66428;47.322;9.432;2023-12-20T01:50:55;11.40;;;5.38;;
77362;SDS011;66428;47.322;9.432;2023-12-20T01:53:23;8.60;;;4.95;;
77362;SDS011;66428;47.322;9.432;2023-12-20T01:55:52;11.80;;;5.75;;
77362;SDS011;66428;47.322;9.432;2023-12-20T01:58:21;9.30;;;4.32;;
77362;SDS011;66428;47.322;9.432;2023-12-20T02:00:50;4.68;;;2.20;;
77362;SDS011;66428;47.322;9.432;2023-12-20T02:03:17;5.05;;;2.80;;
77362;SDS011;66428;47.322;9.432;2023-12-20T02:05:47;8.82;;;4.85;;
77362;SDS011;66428;47.322;9.432;2023-12-20T02:08:15;6.80;;;3.92;;
77362;SDS011;66428;47.322;9.432;2023-12-20T02:10:45;4.53;;;2.30;;
77362;SDS011;66428;47.322;9.432;2023-12-20T02:13:12;5.53;;;3.13;;
77362;SDS011;66428;47.322;9.432;2023-12-20T02:15:40;4.20;;;2.28;;
77362;SDS011;66428;47.322;9.432;2023-12-20T02:18:12;3.33;;;1.83;;
77362;SDS011;66428;47.322;9.432;2023-12-20T02:20:42;2.33;;;1.38;;
77362;SDS011;66428;47.322;9.432;2023-12-20T02:23:11;5.68;;;2.33;;
77362;SDS011;66428;47.322;9.432;2023-12-20T02:25:41;2.95;;;1.75;;
77362;SDS011;66428;47.322;9.432;2023-12-20T02:28:11;4.38;;;1.73;;
77362;SDS011;66428;47.322;9.432;2023-12-20T02:30:39;3.72;;;1.92;;
77362;SDS011;66428;47.322;9.432;2023-12-20T02:33:07;3.30;;;1.65;;
77362;SDS011;66428;47.322;9.432;2023-12-20T02:35:36;2.38;;;1.23;;
77362;SDS011;66428;47.322;9.432;2023-12-20T02:38:03;2.92;;;1.48;;
77362;SDS011;66428;47.322;9.432;2023-12-20T02:40:32;4.10;;;2.13;;
77362;SDS011;66428;47.322;9.432;2023-12-20T02:43:00;6.10;;;3.25;;
77362;SDS011;66428;47.322;9.432;2023-12-20T02:45:28;5.78;;;2.78;;
77362;SDS011;66428;47.322;9.432;2023-12-20T02:47:58;7.05;;;2.60;;
77362;SDS011;66428;47.322;9.432;2023-12-20T02:50:26;5.35;;;2.85;;
77362;SDS011;66428;47.322;9.432;2023-12-20T02:52:56;4.88;;;2.53;;
77362;SDS011;66428;47.322;9.432;2023-12-20T02:55:24;6.18;;;3.25;;
77362;SDS011;66428;47.322;9.432;2023-12-20T02:57:53;5.00;;;2.58;;
77362;SDS011;66428;47.322;9.432;2023-12-20T03:00:21;5.18;;;2.75;;
77362;SDS011;66428;47.322;9.432;2023-12-20T03:02:48;3.55;;;2.20;;
77362;SDS011;66428;47.322;9.432;2023-12-20T03:05:16;3.78;;;2.15;;
77362;SDS011;66428;47.322;9.432;2023-12-20T03:07:44;3.53;;;1.88;;
77362;SDS011;66428;47.322;9.432;2023-12-20T03:10:15;3.60;;;1.50;;
77362;SDS011;66428;47.322;9.432;2023-12-20T03:12:53;2.60;;;1.60;;
77362;SDS011;66428;47.322;9.432;2023-12-20T03:15:21;2.42;;;1.25;;
77362;SDS011;66428;47.322;9.432;2023-12-20T03:17:49;3.30;;;1.58;;
77362;SDS011;66428;47.322;9.432;2023-12-20T03:20:17;2.83;;;1.33;;
77362;SDS011;66428;47.322;9.432;2023-12-20T03:22:44;2.70;;;1.23;;
77362;SDS011;66428;47.322;9.432;2023-12-20T03:25:14;3.30;;;1.40;;
77362;SDS011;66428;47.322;9.432;2023-12-20T03:27:42;3.28;;;1.73;;
77362;SDS011;66428;47.322;9.432;2023-12-20T03:30:14;3.20;;;1.75;;
77362;SDS011;66428;47.322;9.432;2023-12-20T03:32:42;2.72;;;1.52;;
77362;SDS011;66428;47.322;9.432;2023-12-20T03:35:10;2.97;;;1.30;;
77362;SDS011;66428;47.322;9.432;2023-12-20T03:37:38;2.25;;;1.17;;
77362;SDS011;66428;47.322;9.432;2023-12-20T03:40:06;2.42;;;1.10;;
77362;SDS011;66428;47.322;9.432;2023-12-20T03:42:34;1.60;;;0.98;;
77362;SDS011;66428;47.322;9.432;2023-12-20T03:45:02;2.58;;;1.25;;
77362;SDS011;66428;47.322;9.432;2023-12-20T03:47:33;3.10;;;1.35;;
77362;SDS011;66428;47.322;9.432;2023-12-20T03:50:01;2.58;;;1.38;;
77362;SDS011;66428;47.322;9.432;2023-12-20T03:52:29;2.97;;;1.20;;
77362;SDS011;66428;47.322;9.432;2023-12-20T03:54:57;1.58;;;1.00;;
77362;SDS011;66428;47.322;9.432;2023-12-20T03:57:25;4.70;;;1.65;;
77362;SDS011;66428;47.322;9.432;2023-12-20T03:59:53;2.28;;;1.10;;
77362;SDS011;66428;47.322;9.432;2023-12-20T04:02:20;4.45;;;1.75;;
77362;SDS011;66428;47.322;9.432;2023-12-20T04:04:50;2.78;;;1.70;;
77362;SDS011;66428;47.322;9.432;2023-12-20T04:07:22;3.85;;;1.80;;
77362;SDS011;66428;47.322;9.432;2023-12-20T04:09:52;4.53;;;1.77;;
77362;SDS011;66428;47.322;9.432;2023-12-20T04:12:20;4.00;;;2.08;;
77362;SDS011;66428;47.322;9.432;2023-12-20T04:14:47;4.38;;;2.10;;
77362;SDS011;66428;47.322;9.432;2023-12-20T04:17:18;5.25;;;2.20;;
77362;SDS011;66428;47.322;9.432;2023-12-20T04:19:45;4.25;;;2.33;;
77362;SDS011;66428;47.322;9.432;2023-12-20T04:22:15;2.78;;;1.65;;
77362;SDS011;66428;47.322;9.432;2023-12-20T04:24:42;3.25;;;1.45;;
77362;SDS011;66428;47.322;9.432;2023-12-20T04:27:10;2.38;;;1.70;;
77362;SDS011;66428;47.322;9.432;2023-12-20T04:29:40;3.33;;;1.80;;
77362;SDS011;66428;47.322;9.432;2023-12-20T04:32:08;4.30;;;1.50;;
77362;SDS011;66428;47.322;9.432;2023-12-20T04:34:36;2.97;;;1.73;;
77362;SDS011;66428;47.322;9.432;2023-12-20T04:37:04;1.83;;;0.95;;
77362;SDS011;66428;47.322;9.432;2023-12-20T04:39:33;2.15;;;1.30;;
77362;SDS011;66428;47.322;9.432;2023-12-20T04:42:01;2.08;;;1.20;;
77362;SDS011;66428;47.322;9.432;2023-12-20T04:44:28;1.65;;;0.90;;
77362;SDS011;66428;47.322;9.432;2023-12-20T04:46:58;2.05;;;1.13;;
77362;SDS011;66428;47.322;9.432;2023-12-20T04:49:26;2.30;;;1.40;;
77362;SDS011;66428;47.322;9.432;2023-12-20T04:51:54;2.53;;;1.50;;
77362;SDS011;66428;47.322;9.432;2023-12-20T04:54:22;2.83;;;1.40;;
77362;SDS011;66428;47.322;9.432;2023-12-20T04:56:51;3.45;;;1.38;;
77362;SDS011;66428;47.322;9.432;2023-12-20T04:59:21;3.10;;;1.15;;
77362;SDS011;66428;47.322;9.432;2023-12-20T05:01:48;2.92;;;1.42;;
77362;SDS011;66428;47.322;9.432;2023-12-20T05:04:18;3.15;;;1.45;;
77362;SDS011;66428;47.322;9.432;2023-12-20T05:06:47;2.33;;;1.35;;
77362;SDS011;66428;47.322;9.432;2023-12-20T05:09:16;3.50;;;1.52;;
77362;SDS011;66428;47.322;9.432;2023-12-20T05:11:44;5.85;;;2.13;;
77362;SDS011;66428;47.322;9.432;2023-12-20T05:14:13;4.13;;;2.67;;
77362;SDS011;66428;47.322;9.432;2023-12-20T05:16:40;3.65;;;2.10;;
77362;SDS011;66428;47.322;9.432;2023-12-20T05:19:08;7.93;;;2.70;;
77362;SDS011;66428;47.322;9.432;2023-12-20T05:21:36;3.67;;;2.15;;
77362;SDS011;66428;47.322;9.432;2023-12-20T05:24:06;4.55;;;2.60;;
77362;SDS011;66428;47.322;9.432;2023-12-20T05:26:34;4.18;;;2.75;;
77362;SDS011;66428;47.322;9.432;2023-12-20T05:29:01;4.68;;;2.38;;
77362;SDS011;66428;47.322;9.432;2023-12-20T05:31:31;5.35;;;2.72;;
77362;SDS011;66428;47.322;9.432;2023-12-20T05:33:58;4.00;;;2.40;;
77362;SDS011;66428;47.322;9.432;2023-12-20T05:36:26;3.53;;;2.22;;
77362;SDS011;66428;47.322;9.432;2023-12-20T05:38:54;4.88;;;2.70;;
77362;SDS011;66428;47.322;9.432;2023-12-20T05:41:22;5.70;;;3.38;;
77362;SDS011;66428;47.322;9.432;2023-12-20T05:43:50;5.57;;;2.60;;
77362;SDS011;66428;47.322;9.432;2023-12-20T05:46:18;6.07;;;3.10;;
77362;SDS011;66428;47.322;9.432;2023-12-20T05:48:49;3.75;;;2.20;;
77362;SDS011;66428;47.322;9.432;2023-12-20T05:51:20;6.15;;;2.50;;
77362;SDS011;66428;47.322;9.432;2023-12-20T05:53:50;4.43;;;2.45;;
77362;SDS011;66428;47.322;9.432;2023-12-20T05:56:21;4.20;;;2.45;;
77362;SDS011;66428;47.322;9.432;2023-12-20T05:58:48;4.85;;;2.60;;
77362;SDS011;66428;47.322;9.432;2023-12-20T06:01:16;3.53;;;2.38;;
77362;SDS011;66428;47.322;9.432;2023-12-20T06:03:45;4.55;;;2.17;;
77362;SDS011;66428;47.322;9.432;2023-12-20T06:06:14;3.58;;;2.60;;
77362;SDS011;66428;47.322;9.432;2023-12-20T06:08:44;5.65;;;2.90;;
77362;SDS011;66428;47.322;9.432;2023-12-20T06:11:11;6.55;;;3.33;;
77362;SDS011;66428;47.322;9.432;2023-12-20T06:13:42;3.38;;;2.53;;
77362;SDS011;66428;47.322;9.432;2023-12-20T06:16:10;4.53;;;2.85;;
77362;SDS011;66428;47.322;9.432;2023-12-20T06:18:40;6.15;;;3.30;;
77362;SDS011;66428;47.322;9.432;2023-12-20T06:21:08;5.88;;;3.33;;
77362;SDS011;66428;47.322;9.432;2023-12-20T06:23:40;4.63;;;2.95;;
77362;SDS011;66428;47.322;9.432;2023-12-20T06:26:08;3.40;;;2.15;;
77362;SDS011;66428;47.322;9.432;2023-12-20T06:28:36;4.20;;;2.40;;
77362;SDS011;66428;47.322;9.432;2023-12-20T06:31:10;4.53;;;1.90;;
77362;SDS011;66428;47.322;9.432;2023-12-20T06:33:38;3.70;;;2.30;;
77362;SDS011;66428;47.322;9.432;2023-12-20T06:36:10;2.85;;;1.92;;
77362;SDS011;66428;47.322;9.432;2023-12-20T06:38:38;3.78;;;1.83;;
77362;SDS011;66428;47.322;9.432;2023-12-20T06:41:07;3.05;;;1.48;;
77362;SDS011;66428;47.322;9.432;2023-12-20T06:43:35;3.35;;;1.88;;
77362;SDS011;66428;47.322;9.432;2023-12-20T06:46:15;3.35;;;1.88;;
77362;SDS011;66428;47.322;9.432;2023-12-20T06:48:45;2.40;;;1.30;;
77362;SDS011;66428;47.322;9.432;2023-12-20T06:51:16;1.92;;;1.05;;
77362;SDS011;66428;47.322;9.432;2023-12-20T06:53:46;2.45;;;1.80;;
77362;SDS011;66428;47.322;9.432;2023-12-20T06:56:15;4.55;;;2.75;;
77362;SDS011;66428;47.322;9.432;2023-12-20T06:58:45;3.03;;;1.60;;
77362;SDS011;66428;47.322;9.432;2023-12-20T07:01:13;2.45;;;1.27;;
77362;SDS011;66428;47.322;9.432;2023-12-20T07:03:41;1.95;;;0.75;;
77362;SDS011;66428;47.322;9.432;2023-12-20T07:06:11;2.88;;;0.90;;
77362;SDS011;66428;47.322;9.432;2023-12-20T07:08:40;1.40;;;0.90;;
77362;SDS011;66428;47.322;9.432;2023-12-20T07:11:10;2.70;;;0.80;;
77362;SDS011;66428;47.322;9.432;2023-12-20T07:13:41;1.45;;;0.90;;
77362;SDS011;66428;47.322;9.432;2023-12-20T07:16:09;1.60;;;0.77;;
77362;SDS011;66428;47.322;9.432;2023-12-20T07:18:37;0.80;;;0.55;;
77362;SDS011;66428;47.322;9.432;2023-12-20T07:21:07;1.02;;;0.68;;
77362;SDS011;66428;47.322;9.432;2023-12-20T07:23:35;1.48;;;0.90;;
77362;SDS011;66428;47.322;9.432;2023-12-20T07:26:03;1.10;;;0.65;;
77362;SDS011;66428;47.322;9.432;2023-12-20T07:28:31;0.73;;;0.60;;
77362;SDS011;66428;47.322;9.432;2023-12-20T07:31:03;12.80;;;6.10;;
77362;SDS011;66428;47.322;9.432;2023-12-20T07:33:31;20.15;;;8.10;;
77362;SDS011;66428;47.322;9.432;2023-12-20T07:36:05;17.90;;;8.38;;
77362;SDS011;66428;47.322;9.432;2023-12-20T07:38:33;12.73;;;8.93;;
77362;SDS011;66428;47.322;9.432;2023-12-20T07:41:01;7.97;;;3.88;;
77362;SDS011;66428;47.322;9.432;2023-12-20T07:43:28;4.25;;;3.22;;
77362;SDS011;66428;47.322;9.432;2023-12-20T07:45:56;4.13;;;2.28;;
77362;SDS011;66428;47.322;9.432;2023-12-20T07:48:25;2.92;;;1.80;;
77362;SDS011;66428;47.322;9.432;2023-12-20T07:50:53;2.92;;;1.45;;
77362;SDS011;66428;47.322;9.432;2023-12-20T07:53:21;3.03;;;1.98;;
77362;SDS011;66428;47.322;9.432;2023-12-20T07:55:49;4.78;;;1.60;;
77362;SDS011;66428;47.322;9.432;2023-12-20T07:58:19;4.40;;;2.13;;
77362;SDS011;66428;47.322;9.432;2023-12-20T08:00:48;10.07;;;3.88;;
77362;SDS011;66428;47.322;9.432;2023-12-20T08:03:16;15.55;;;7.15;;
77362;SDS011;66428;47.322;9.432;2023-12-20T08:05:45;3.30;;;1.92;;
77362;SDS011;66428;47.322;9.432;2023-12-20T08:08:12;1.75;;;1.00;;
77362;SDS011;66428;47.322;9.432;2023-12-20T08:10:40;2.38;;;1.67;;
77362;SDS011;66428;47.322;9.432;2023-12-20T08:13:08;4.53;;;1.85;;
77362;SDS011;66428;47.322;9.432;2023-12-20T08:15:38;2.97;;;1.58;;
77362;SDS011;66428;47.322;9.432;2023-12-20T08:18:08;4.40;;;1.60;;
77362;SDS011;66428;47.322;9.432;2023-12-20T08:20:38;5.97;;;2.50;;
77362;SDS011;66428;47.322;9.432;2023-12-20T08:23:11;9.00;;;4.00;;
77362;SDS011;66428;47.322;9.432;2023-12-20T08:25:38;12.05;;;5.40;;
77362;SDS011;66428;47.322;9.432;2023-12-20T08:28:08;5.47;;;3.35;;
77362;SDS011;66428;47.322;9.432;2023-12-20T08:30:36;5.03;;;2.65;;
77362;SDS011;66428;47.322;9.432;2023-12-20T08:33:04;3.63;;;2.15;;
77362;SDS011;66428;47.322;9.432;2023-12-20T08:35:36;2.63;;;1.30;;
77362;SDS011;66428;47.322;9.432;2023-12-20T08:38:04;2.25;;;1.20;;
77362;SDS011;66428;47.322;9.432;2023-12-20T08:40:36;2.40;;;1.40;;
77362;SDS011;66428;47.322;9.432;2023-12-20T08:43:04;2.92;;;1.35;;
77362;SDS011;66428;47.322;9.432;2023-12-20T08:45:31;1.73;;;1.05;;
77362;SDS011;66428;47.322;9.432;2023-12-20T08:47:59;3.92;;;1.65;;
77362;SDS011;66428;47.322;9.432;2023-12-20T08:50:32;1.77;;;1.00;;
77362;SDS011;66428;47.322;9.432;2023-12-20T08:53:00;1.33;;;0.43;;
77362;SDS011;66428;47.322;9.432;2023-12-20T08:55:28;1.60;;;0.80;;
77362;SDS011;66428;47.322;9.432;2023-12-20T08:57:59;1.38;;;0.57;;
77362;SDS011;66428;47.322;9.432;2023-12-20T09:00:27;2.00;;;0.60;;
77362;SDS011;66428;47.322;9.432;2023-12-20T09:02:56;0.70;;;0.60;;
77362;SDS011;66428;47.322;9.432;2023-12-20T09:05:24;2.20;;;0.80;;
77362;SDS011;66428;47.322;9.432;2023-12-20T09:07:51;1.88;;;0.95;;
77362;SDS011;66428;47.322;9.432;2023-12-20T09:10:19;2.97;;;1.50;;
77362;SDS011;66428;47.322;9.432;2023-12-20T09:12:52;2.10;;;0.98;;
77362;SDS011;66428;47.322;9.432;2023-12-20T09:15:24;3.38;;;1.13;;
77362;SDS011;66428;47.322;9.432;2023-12-20T09:17:54;3.85;;;1.42;;
77362;SDS011;66428;47.322;9.432;2023-12-20T09:20:24;3.90;;;1.10;;
77362;SDS011;66428;47.322;9.432;2023-12-20T09:22:52;4.55;;;2.08;;
77362;SDS011;66428;47.322;9.432;2023-12-20T09:25:19;7.20;;;3.20;;
77362;SDS011;66428;47.322;9.432;2023-12-20T09:27:48;3.63;;;1.75;;
77362;SDS011;66428;47.322;9.432;2023-12-20T09:30:18;4.57;;;1.42;;
77362;SDS011;66428;47.322;9.432;2023-12-20T09:32:57;1.67;;;0.93;;
77362;SDS011;66428;47.322;9.432;2023-12-20T09:35:25;0.80;;;0.60;;
77362;SDS011;66428;47.322;9.432;2023-12-20T09:37:55;11.10;;;1.52;;
77362;SDS011;66428;47.322;9.432;2023-12-20T09:40:23;1.40;;;0.40;;
77362;SDS011;66428;47.322;9.432;2023-12-20T09:42:56;2.22;;;1.27;;
77362;SDS011;66428;47.322;9.432;2023-12-20T09:45:24;2.30;;;0.90;;
77362;SDS011;66428;47.322;9.432;2023-12-20T09:47:52;2.88;;;0.90;;
77362;SDS011;66428;47.322;9.432;2023-12-20T09:50:22;3.15;;;1.15;;
77362;SDS011;66428;47.322;9.432;2023-12-20T09:52:50;3.65;;;0.85;;
77362;SDS011;66428;47.322;9.432;2023-12-20T09:55:19;4.40;;;1.00;;
77362;SDS011;66428;47.322;9.432;2023-12-20T09:57:47;1.95;;;0.68;;
77362;SDS011;66428;47.322;9.432;2023-12-20T10:00:18;1.90;;;0.68;;
77362;SDS011;66428;47.322;9.432;2023-12-20T10:02:48;1.27;;;0.75;;
77362;SDS011;66428;47.322;9.432;2023-12-20T10:05:19;1.10;;;0.55;;
77362;SDS011;66428;47.322;9.432;2023-12-20T10:07:55;0.20;;;0.20;;
77362;SDS011;66428;47.322;9.432;2023-12-20T10:10:25;0.77;;;0.43;;
77362;SDS011;66428;47.322;9.432;2023-12-20T10:13:10;0.80;;;0.55;;
77362;SDS011;66428;47.322;9.432;2023-12-20T10:15:38;2.60;;;1.17;;
77362;SDS011;66428;47.322;9.432;2023-12-20T10:18:08;1.15;;;0.68;;
77362;SDS011;66428;47.322;9.432;2023-12-20T10:20:36;1.23;;;0.65;;
77362;SDS011;66428;47.322;9.432;2023-12-20T10:23:05;0.75;;;0.45;;
77362;SDS011;66428;47.322;9.432;2023-12-20T10:25:33;1.33;;;0.63;;
77362;SDS011;66428;47.322;9.432;2023-12-20T10:28:10;0.57;;;0.43;;
77362;SDS011;66428;47.322;9.432;2023-12-20T10:30:38;3.80;;;1.30;;
77362;SDS011;66428;47.322;9.432;2023-12-20T10:33:07;1.98;;;0.90;;
77362;SDS011;66428;47.322;9.432;2023-12-20T10:35:35;3.05;;;0.85;;
77362;SDS011;66428;47.322;9.432;2023-12-20T10:38:03;1.30;;;0.40;;
77362;SDS011;66428;47.322;9.432;2023-12-20T10:40:34;0.77;;;0.55;;
77362;SDS011;66428;47.322;9.432;2023-12-20T10:43:03;0.20;;;0.20;;
77362;SDS011;66428;47.322;9.432;2023-12-20T10:45:31;1.17;;;0.52;;
77362;SDS011;66428;47.322;9.432;2023-12-20T10:47:59;0.93;;;0.40;;
77362;SDS011;66428;47.322;9.432;2023-12-20T10:50:27;0.63;;;0.47;;
77362;SDS011;66428;47.322;9.432;2023-12-20T10:52:56;0.30;;;0.30;;
77362;SDS011;66428;47.322;9.432;2023-12-20T10:55:24;0.35;;;0.35;;
77362;SDS011;66428;47.322;9.432;2023-12-20T10:57:57;0.80;;;0.50;;
77362;SDS011;66428;47.322;9.432;2023-12-20T11:00:28;0.43;;;0.30;;
77362;SDS011;66428;47.322;9.432;2023-12-20T11:03:00;0.80;;;0.40;;
77362;SDS011;66428;47.322;9.432;2023-12-20T11:05:30;0.85;;;0.50;;
77362;SDS011;66428;47.322;9.432;2023-12-20T11:08:02;1.92;;;0.60;;
77362;SDS011;66428;47.322;9.432;2023-12-20T11:10:36;0.57;;;0.32;;
77362;SDS011;66428;47.322;9.432;2023-12-20T11:15:39;1.45;;;0.40;;
77362;SDS011;66428;47.322;9.432;2023-12-20T11:18:08;0.57;;;0.40;;
77362;SDS011;66428;47.322;9.432;2023-12-20T11:20:39;0.43;;;0.30;;
77362;SDS011;66428;47.322;9.432;2023-12-20T11:23:07;0.30;;;0.30;;
77362;SDS011;66428;47.322;9.432;2023-12-20T11:25:47;0.45;;;0.20;;
77362;SDS011;66428;47.322;9.432;2023-12-20T11:28:15;0.30;;;0.30;;
77362;SDS011;66428;47.322;9.432;2023-12-20T11:30:50;0.65;;;0.50;;
77362;SDS011;66428;47.322;9.432;2023-12-20T11:33:21;1.00;;;0.47;;
77362;SDS011;66428;47.322;9.432;2023-12-20T11:35:51;0.45;;;0.30;;
77362;SDS011;66428;47.322;9.432;2023-12-20T11:38:19;0.65;;;0.40;;
77362;SDS011;66428;47.322;9.432;2023-12-20T11:40:47;1.48;;;0.40;;
77362;SDS011;66428;47.322;9.432;2023-12-20T11:43:29;0.40;;;0.25;;
77362;SDS011;66428;47.322;9.432;2023-12-20T11:46:03;0.50;;;0.30;;
77362;SDS011;66428;47.322;9.432;2023-12-20T11:48:32;2.10;;;0.35;;
77362;SDS011;66428;47.322;9.432;2023-12-20T11:51:00;3.70;;;0.85;;
77362;SDS011;66428;47.322;9.432;2023-12-20T11:53:30;0.82;;;0.32;;
77362;SDS011;66428;47.322;9.432;2023-12-20T11:55:58;0.40;;;0.38;;
77362;SDS011;66428;47.322;9.432;2023-12-20T11:58:26;0.63;;;0.45;;
77362;SDS011;66428;47.322;9.432;2023-12-20T12:00:54;0.38;;;0.35;;
77362;SDS011;66428;47.322;9.432;2023-12-20T12:03:24;2.13;;;0.80;;
77362;SDS011;66428;47.322;9.432;2023-12-20T12:05:54;1.27;;;0.70;;
77362;SDS011;66428;47.322;9.432;2023-12-20T12:08:25;1.45;;;0.70;;
77362;SDS011;66428;47.322;9.432;2023-12-20T12:10:52;2.22;;;0.80;;
77362;SDS011;66428;47.322;9.432;2023-12-20T12:13:20;1.77;;;0.98;;
77362;SDS011;66428;47.322;9.432;2023-12-20T12:15:48;5.13;;;1.40;;
77362;SDS011;66428;47.322;9.432;2023-12-20T12:18:16;2.13;;;1.05;;
77362;SDS011;66428;47.322;9.432;2023-12-20T12:20:46;1.75;;;0.70;;
77362;SDS011;66428;47.322;9.432;2023-12-20T12:23:14;2.13;;;1.17;;
77362;SDS011;66428;47.322;9.432;2023-12-20T12:25:44;8.00;;;2.38;;
77362;SDS011;66428;47.322;9.432;2023-12-20T12:28:15;3.72;;;1.33;;
77362;SDS011;66428;47.322;9.432;2023-12-20T12:30:55;3.58;;;1.17;;
77362;SDS011;66428;47.322;9.432;2023-12-20T12:33:24;3.92;;;0.80;;
77362;SDS011;66428;47.322;9.432;2023-12-20T12:35:54;5.38;;;1.95;;
77362;SDS011;66428;47.322;9.432;2023-12-20T12:38:24;2.80;;;0.98;;
77362;SDS011;66428;47.322;9.432;2023-12-20T12:40:52;2.47;;;1.50;;
77362;SDS011;66428;47.322;9.432;2023-12-20T12:43:22;1.42;;;0.90;;
77362;SDS011;66428;47.322;9.432;2023-12-20T12:45:50;0.70;;;0.55;;
77362;SDS011;66428;47.322;9.432;2023-12-20T12:48:18;2.13;;;1.00;;
77362;SDS011;66428;47.322;9.432;2023-12-20T12:50:49;2.17;;;0.80;;
77362;SDS011;66428;47.322;9.432;2023-12-20T12:53:20;1.70;;;1.02;;
77362;SDS011;66428;47.322;9.432;2023-12-20T12:55:47;1.77;;;0.90;;
77362;SDS011;66428;47.322;9.432;2023-12-20T12:58:17;0.95;;;0.60;;
77362;SDS011;66428;47.322;9.432;2023-12-20T13:00:48;0.75;;;0.47;;
77362;SDS011;66428;47.322;9.432;2023-12-20T13:03:16;1.55;;;0.80;;
77362;SDS011;66428;47.322;9.432;2023-12-20T13:05:46;1.23;;;0.80;;
77362;SDS011;66428;47.322;9.432;2023-12-20T13:08:14;5.18;;;1.92;;
77362;SDS011;66428;47.322;9.432;2023-12-20T13:10:46;3.85;;;1.73;;
77362;SDS011;66428;47.322;9.432;2023-12-20T13:13:16;1.67;;;0.90;;
77362;SDS011;66428;47.322;9.432;2023-12-20T13:15:46;2.47;;;1.30;;
77362;SDS011;66428;47.322;9.432;2023-12-20T13:18:22;1.90;;;1.02;;
77362;SDS011;66428;47.322;9.432;2023-12-20T13:20:49;2.33;;;1.30;;
77362;SDS011;66428;47.322;9.432;2023-12-20T13:23:19;1.70;;;1.00;;
77362;SDS011;66428;47.322;9.432;2023-12-20T13:25:49;2.10;;;1.27;;
77362;SDS011;66428;47.322;9.432;2023-12-20T13:28:16;2.50;;;1.65;;
77362;SDS011;66428;47.322;9.432;2023-12-20T13:30:45;3.05;;;1.90;;
77362;SDS011;66428;47.322;9.432;2023-12-20T13:33:12;2.60;;;1.67;;
77362;SDS011;66428;47.322;9.432;2023-12-20T13:35:40;2.90;;;1.70;;
77362;SDS011;66428;47.322;9.432;2023-12-20T13:38:08;2.70;;;1.67;;
77362;SDS011;66428;47.322;9.432;2023-12-20T13:40:36;2.88;;;1.55;;
77362;SDS011;66428;47.322;9.432;2023-12-20T13:43:08;3.08;;;1.83;;
77362;SDS011;66428;47.322;9.432;2023-12-20T13:45:37;2.78;;;1.67;;
77362;SDS011;66428;47.322;9.432;2023-12-20T13:48:07;2.72;;;1.90;;
77362;SDS011;66428;47.322;9.432;2023-12-20T13:50:35;3.15;;;1.70;;
77362;SDS011;66428;47.322;9.432;2023-12-20T13:53:02;2.17;;;1.40;;
77362;SDS011;66428;47.322;9.432;2023-12-20T13:55:31;3.38;;;1.98;;
77362;SDS011;66428;47.322;9.432;2023-12-20T13:57:59;3.92;;;2.40;;
77362;SDS011;66428;47.322;9.432;2023-12-20T14:00:29;2.83;;;1.50;;
77362;SDS011;66428;47.322;9.432;2023-12-20T14:02:58;2.63;;;1.95;;
77362;SDS011;66428;47.322;9.432;2023-12-20T14:05:28;3.40;;;2.00;;
77362;SDS011;66428;47.322;9.432;2023-12-20T14:07:58;3.83;;;2.53;;
77362;SDS011;66428;47.322;9.432;2023-12-20T14:10:27;4.38;;;2.67;;
77362;SDS011;66428;47.322;9.432;2023-12-20T14:12:57;7.55;;;2.90;;
77362;SDS011;66428;47.322;9.432;2023-12-20T14:15:24;4.95;;;3.00;;
77362;SDS011;66428;47.322;9.432;2023-12-20T14:17:54;4.60;;;2.70;;
77362;SDS011;66428;47.322;9.432;2023-12-20T14:20:22;8.95;;;2.92;;
77362;SDS011;66428;47.322;9.432;2023-12-20T14:22:50;5.53;;;2.90;;
77362;SDS011;66428;47.322;9.432;2023-12-20T14:25:20;4.32;;;2.20;;
77362;SDS011;66428;47.322;9.432;2023-12-20T14:27:52;3.15;;;1.80;;
77362;SDS011;66428;47.322;9.432;2023-12-20T14:30:22;3.28;;;2.10;;
77362;SDS011;66428;47.322;9.432;2023-12-20T14:32:53;4.90;;;2.28;;
77362;SDS011;66428;47.322;9.432;2023-12-20T14:35:21;3.75;;;2.03;;
77362;SDS011;66428;47.322;9.432;2023-12-20T14:37:49;3.70;;;2.42;;
77362;SDS011;66428;47.322;9.432;2023-12-20T14:40:16;2.88;;;1.48;;
77362;SDS011;66428;47.322;9.432;2023-12-20T14:42:44;3.40;;;2.05;;
77362;SDS011;66428;47.322;9.432;2023-12-20T14:45:12;2.78;;;1.60;;
77362;SDS011;66428;47.322;9.432;2023-12-20T14:47:40;3.28;;;1.90;;
77362;SDS011;66428;47.322;9.432;2023-12-20T14:50:10;3.90;;;2.22;;
77362;SDS011;66428;47.322;9.432;2023-12-20T14:52:38;3.63;;;1.92;;
77362;SDS011;66428;47.322;9.432;2023-12-20T14:55:06;2.83;;;1.85;;
77362;SDS011;66428;47.322;9.432;2023-12-20T14:57:34;2.25;;;1.60;;
77362;SDS011;66428;47.322;9.432;2023-12-20T15:00:02;3.45;;;2.10;;
77362;SDS011;66428;47.322;9.432;2023-12-20T15:02:32;2.50;;;1.73;;